Time;durP1;ratioP1;P1;durP2;ratioP2;P2;SDS_P1;SDS_P2;PMS_P1;PMS_P2;Temp;Humidity;BMP_temperature;BMP_pressure;BME280_temperature;BME280_humidity;BME280_pressure;Samples;Min_cycle;Max_cycle;Signal;HPM_P1;HPM_P2
2023/12/22 00:01:04;;;;;;;9.20;4.53;;;;;;;7.53;100.00;101011.72;6284697;22;20077;-84
2023/12/22 00:03:33;;;;;;;7.35;3.75;;;;;;;7.52;100.00;101009.97;6273425;22;20047;-84
2023/12/22 00:29:19;;;;;;;8.43;4.07;;;;;;;7.31;100.00;101002.13;6275956;22;20015;-84
2023/12/22 00:31:52;;;;;;;9.15;4.47;;;;;;;7.34;100.00;101009.13;6275275;22;20354;-87
2023/12/22 00:34:24;;;;;;;10.43;4.45;;;;;;;7.32;100.00;101003.88;6278871;22;20019;-85
2023/12/22 00:36:53;;;;;;;9.63;5.13;;;;;;;7.30;100.00;101008.06;6275591;22;20019;-84
2023/12/22 00:39:25;;;;;;;11.02;4.85;;;;;;;7.32;100.00;101005.59;6272226;22;20016;-84
2023/12/22 00:41:54;;;;;;;7.32;4.03;;;;;;;7.32;100.00;101010.72;6272719;22;20515;-84
2023/12/22 00:44:27;;;;;;;9.68;4.40;;;;;;;7.30;100.00;100997.78;6273397;22;20016;-84
2023/12/22 00:47:11;;;;;;;7.05;3.60;;;;;;;7.33;100.00;101005.66;6272736;22;20023;-87
2023/12/22 00:49:41;;;;;;;6.18;3.10;;;;;;;7.26;100.00;101011.34;6273418;22;20020;-85
2023/12/22 00:52:20;;;;;;;9.45;3.55;;;;;;;7.27;100.00;101012.22;6272973;22;20022;-85
2023/12/22 00:54:49;;;;;;;8.52;3.70;;;;;;;7.21;100.00;101017.94;6273091;22;20020;-86
2023/12/22 00:57:18;;;;;;;6.57;3.35;;;;;;;7.12;100.00;101008.13;6272225;22;20094;-85
2023/12/22 00:59:49;;;;;;;8.50;3.55;;;;;;;7.17;100.00;101016.06;6272992;22;20050;-86
2023/12/22 01:02:21;;;;;;;7.28;3.60;;;;;;;7.13;100.00;101024.44;6272068;22;20385;-84
2023/12/22 01:04:50;;;;;;;6.28;3.58;;;;;;;7.16;100.00;101027.16;6273910;22;20018;-85
2023/12/22 01:07:19;;;;;;;7.47;3.45;;;;;;;7.12;100.00;101013.28;6274593;22;20342;-86
2023/12/22 01:09:52;;;;;;;7.13;3.22;;;;;;;7.22;100.00;101019.72;6276364;22;20658;-86
2023/12/22 01:30:49;;;;;;;8.15;3.42;;;;;;;6.92;100.00;101020.03;6283387;22;20032;-85
2023/12/22 01:33:18;;;;;;;9.45;3.83;;;;;;;6.92;100.00;101035.47;6270551;22;20102;-84
2023/12/22 01:35:47;;;;;;;10.48;3.65;;;;;;;6.86;100.00;101035.16;6274355;22;20442;-83
2023/12/22 01:38:16;;;;;;;9.13;3.70;;;;;;;6.79;100.00;101040.81;6270006;22;20024;-84
2023/12/22 01:40:45;;;;;;;5.32;2.97;;;;;;;6.77;100.00;101039.84;6274416;22;20297;-84
2023/12/22 01:43:21;;;;;;;7.57;3.40;;;;;;;6.76;100.00;101042.31;6275602;22;20016;-89
2023/12/22 01:46:06;;;;;;;8.70;4.40;;;;;;;6.75;100.00;101036.31;6274558;22;20027;-86
2023/12/22 02:06:56;;;;;;;6.65;3.38;;;;;;;6.88;100.00;101042.94;6275747;22;20030;-86
2023/12/22 02:09:25;;;;;;;6.40;3.35;;;;;;;6.86;100.00;101045.44;6272840;22;20016;-85
2023/12/22 02:12:08;;;;;;;7.95;3.20;;;;;;;6.84;100.00;101044.47;6275763;22;20080;-87
2023/12/22 02:14:37;;;;;;;4.72;2.53;;;;;;;6.89;100.00;101053.31;6274434;22;20121;-86
2023/12/22 02:17:13;;;;;;;7.30;3.05;;;;;;;6.92;100.00;101045.75;6274637;22;20103;-85
2023/12/22 02:22:15;;;;;;;9.32;3.78;;;;;;;6.97;100.00;101043.41;6282308;22;20019;-86
2023/12/22 02:24:53;;;;;;;10.73;3.65;;;;;;;6.93;100.00;101044.06;6277767;22;20090;-88
2023/12/22 02:27:35;;;;;;;5.60;3.22;;;;;;;6.90;100.00;101042.22;6275175;22;20015;-86
2023/12/22 02:30:22;;;;;;;6.78;2.95;;;;;;;6.91;100.00;101038.81;6275725;22;20026;-87
2023/12/22 02:32:59;;;;;;;10.27;3.47;;;;;;;6.92;100.00;101038.03;6273403;22;20012;-88
2023/12/22 02:35:33;;;;;;;5.68;3.30;;;;;;;6.97;100.00;101042.53;6273742;22;20074;-89
2023/12/22 02:38:08;;;;;;;6.90;3.05;;;;;;;6.98;100.00;101049.41;6273770;22;20019;-88
2023/12/22 02:53:36;;;;;;;6.43;3.92;;;;;;;6.80;100.00;101046.81;6282895;22;20023;-86
2023/12/22 02:56:12;;;;;;;6.30;3.13;;;;;;;6.72;100.00;101044.75;6273290;22;20020;-86
2023/12/22 02:58:43;;;;;;;11.10;3.72;;;;;;;6.77;100.00;101046.69;6273228;22;20026;-87
2023/12/22 03:01:12;;;;;;;7.93;3.30;;;;;;;6.77;100.00;101052.69;6271051;22;20022;-84
2023/12/22 03:03:41;;;;;;;5.72;3.30;;;;;;;6.78;100.00;101045.88;6275174;22;20046;-85
2023/12/22 03:06:11;;;;;;;6.97;3.88;;;;;;;6.74;100.00;101039.69;6271213;22;20023;-85
2023/12/22 03:08:45;;;;;;;6.10;3.53;;;;;;;6.75;100.00;101046.59;6272266;22;20026;-83
2023/12/22 03:11:14;;;;;;;9.43;3.53;;;;;;;6.72;100.00;101046.47;6272720;22;20019;-83
2023/12/22 03:13:42;;;;;;;7.53;3.88;;;;;;;6.65;100.00;101045.28;6273846;22;20023;-83
2023/12/22 03:16:11;;;;;;;9.70;4.78;;;;;;;6.71;100.00;101044.69;6272441;22;20019;-83
2023/12/22 03:18:46;;;;;;;8.85;4.57;;;;;;;6.70;100.00;101048.06;6273647;22;20022;-84
2023/12/22 03:21:20;;;;;;;9.07;4.38;;;;;;;6.76;100.00;101053.53;6274174;22;20019;-83
2023/12/22 03:23:50;;;;;;;13.98;5.65;;;;;;;6.77;100.00;101055.28;6274144;22;20024;-82
2023/12/22 03:26:29;;;;;;;8.95;4.43;;;;;;;6.80;100.00;101059.69;6270538;22;20080;-82
2023/12/22 03:28:58;;;;;;;8.65;4.50;;;;;;;6.78;100.00;101045.88;6271979;22;20023;-83
2023/12/22 03:31:28;;;;;;;13.25;5.30;;;;;;;6.77;100.00;101060.41;6272731;22;20016;-82
2023/12/22 03:34:05;;;;;;;9.75;4.22;;;;;;;6.75;100.00;101048.28;6273027;22;20019;-83
2023/12/22 03:36:34;;;;;;;10.35;5.20;;;;;;;6.68;100.00;101049.69;6272813;22;20118;-83
2023/12/22 03:39:06;;;;;;;9.20;4.18;;;;;;;6.62;100.00;101050.25;6276247;22;20016;-85
2023/12/22 03:41:35;;;;;;;8.43;4.00;;;;;;;6.54;100.00;101051.56;6273646;22;20081;-83
2023/12/22 03:44:06;;;;;;;9.02;3.95;;;;;;;6.45;100.00;101038.25;6271293;22;20066;-82
2023/12/22 04:02:32;;;;;;;9.30;3.72;;;;;;;6.34;100.00;101041.94;6112849;22;4083011;-83
2023/12/22 04:05:04;;;;;;;7.55;3.17;;;;;;;6.32;100.00;101039.28;6159915;23;20060;-84
2023/12/22 04:07:33;;;;;;;7.13;4.15;;;;;;;6.32;100.00;101039.28;6159700;23;20013;-84
2023/12/22 04:10:05;;;;;;;9.13;3.60;;;;;;;6.38;100.00;101039.63;6159579;23;20017;-85
2023/12/22 04:12:34;;;;;;;7.00;3.72;;;;;;;6.41;100.00;101039.75;6161111;23;20021;-86
2023/12/22 04:59:08;;;;;;;16.98;4.78;;;;;;;6.61;100.00;101037.31;6177580;23;20031;-84
2023/12/22 05:30:13;;;;;;;6.75;3.20;;;;;;;6.54;100.00;101024.97;6215532;23;20032;-86
2023/12/22 05:32:47;;;;;;;6.15;2.78;;;;;;;6.54;100.00;101028.41;6214365;23;20055;-84
2023/12/22 09:14:53;;;;;;;2.83;1.63;;;;;;;7.14;100.00;100949.88;6214908;23;20044;-84
2023/12/22 09:17:26;;;;;;;4.25;1.55;;;;;;;7.19;100.00;100947.50;6213204;23;20012;-84
2023/12/22 09:19:58;;;;;;;2.70;1.73;;;;;;;7.20;100.00;100957.00;6211900;23;20020;-86
2023/12/22 09:22:29;;;;;;;5.90;1.85;;;;;;;7.22;100.00;100955.38;6213439;23;20031;-86
2023/12/22 09:24:58;;;;;;;3.73;1.70;;;;;;;7.27;100.00;100950.44;6212177;23;20046;-86
2023/12/22 09:27:31;;;;;;;4.22;1.85;;;;;;;7.27;100.00;100946.16;6213136;23;20250;-85
2023/12/22 09:30:09;;;;;;;5.25;2.03;;;;;;;7.28;100.00;100940.22;6213817;23;20024;-86
2023/12/22 09:32:38;;;;;;;4.28;1.95;;;;;;;7.29;100.00;100944.56;6212484;23;20024;-84
2023/12/22 09:35:08;;;;;;;4.40;2.05;;;;;;;7.31;100.00;100926.63;6214328;23;20044;-86
2023/12/22 09:37:44;;;;;;;3.20;1.70;;;;;;;7.34;100.00;100934.47;6212586;23;20028;-87
2023/12/22 09:40:14;;;;;;;3.78;1.90;;;;;;;7.32;100.00;100929.25;6213781;23;20044;-86
2023/12/22 09:42:44;;;;;;;3.28;1.33;;;;;;;7.31;100.00;100936.91;6213511;23;20031;-86
2023/12/22 09:45:27;;;;;;;2.47;1.60;;;;;;;7.27;100.00;100940.16;6215192;23;20021;-86
2023/12/22 09:48:00;;;;;;;3.50;1.58;;;;;;;7.27;100.00;100947.88;6213798;23;20040;-86
2023/12/22 10:25:43;;;;;;;5.78;2.20;;;;;;;7.28;100.00;100958.25;6184195;23;20080;-83
2023/12/22 10:28:13;;;;;;;;;;;;;;;7.28;100.00;100957.34;6187368;23;20017;-83
2023/12/22 10:30:47;;;;;;;3.42;1.52;;;;;;;7.26;100.00;100959.88;6182726;23;19924;-82
2023/12/22 10:33:20;;;;;;;2.88;1.48;;;;;;;7.26;100.00;100948.66;6183210;23;20021;-83
2023/12/22 10:35:52;;;;;;;3.97;2.00;;;;;;;7.22;100.00;100937.38;6182054;23;20108;-83
2023/12/22 10:38:22;;;;;;;3.17;1.50;;;;;;;7.22;100.00;100942.50;6176461;23;20026;-83
2023/12/22 10:40:58;;;;;;;3.08;1.52;;;;;;;7.22;100.00;100937.38;6177755;23;20431;-83
2023/12/22 10:43:27;;;;;;;6.00;1.60;;;;;;;7.28;100.00;100952.19;6181614;23;20017;-84
2023/12/22 10:45:57;;;;;;;2.92;1.35;;;;;;;7.31;100.00;100953.22;6183215;23;20100;-85
2023/12/22 10:48:30;;;;;;;3.38;1.55;;;;;;;7.29;100.00;100957.44;6182560;23;20021;-83
2023/12/22 10:50:59;;;;;;;2.47;1.25;;;;;;;7.27;100.00;100946.16;6182297;23;20027;-84
2023/12/22 10:53:28;;;;;;;3.70;1.80;;;;;;;7.22;100.00;100942.50;6183611;23;20021;-84
2023/12/22 10:55:59;;;;;;;3.67;1.80;;;;;;;7.20;100.00;100933.84;6182307;23;20050;-83
2023/12/22 10:58:30;;;;;;;4.03;1.83;;;;;;;7.20;100.00;100939.00;6180734;23;20020;-83
2023/12/22 11:01:03;;;;;;;3.03;1.48;;;;;;;7.19;100.00;100934.63;6183225;23;20021;-83
2023/12/22 11:03:36;;;;;;;;;;;;;;;7.16;100.00;100926.78;6181799;23;20446;-83
2023/12/22 11:06:09;;;;;;;2.33;1.27;;;;;;;7.17;100.00;100943.09;6186570;23;19924;-84
2023/12/22 11:08:42;;;;;;;2.75;1.17;;;;;;;7.16;100.00;100931.06;6182554;23;20471;-84
2023/12/22 11:11:22;;;;;;;7.93;1.50;;;;;;;7.18;100.00;100935.47;6183096;23;20024;-83
2023/12/22 11:14:00;;;;;;;4.35;1.50;;;;;;;7.15;100.00;100927.59;6182443;23;20021;-83
2023/12/22 11:16:32;;;;;;;3.78;1.38;;;;;;;7.07;100.00;100913.50;6181301;23;20021;-83
2023/12/22 11:19:02;;;;;;;4.80;1.50;;;;;;;7.08;100.00;100928.13;6183212;23;20013;-84
2023/12/22 11:21:35;;;;;;;3.58;1.58;;;;;;;7.07;100.00;100939.22;6180610;23;20032;-84
2023/12/22 11:24:08;;;;;;;3.30;1.90;;;;;;;7.12;100.00;100945.47;6183744;23;20410;-84
2023/12/22 11:26:40;;;;;;;3.58;1.08;;;;;;;7.15;100.00;100943.03;6182657;23;20035;-86
2023/12/22 11:29:09;;;;;;;;;;;;;;;7.18;100.00;100950.91;6185073;23;20017;-85
2023/12/22 11:31:43;;;;;;;2.78;1.48;;;;;;;7.21;100.00;100934.72;6183782;23;19923;-84
2023/12/22 11:34:13;;;;;;;2.75;1.20;;;;;;;7.23;100.00;100925.38;6182352;23;20027;-84
2023/12/22 11:36:42;;;;;;;4.03;1.80;;;;;;;7.18;100.00;100904.56;6182960;23;20085;-84
2023/12/22 11:39:12;;;;;;;2.80;1.30;;;;;;;7.26;100.00;100903.25;6181566;23;20515;-84
2023/12/22 11:41:54;;;;;;;2.88;1.70;;;;;;;7.32;100.00;100888.06;6185081;23;20104;-84
2023/12/22 11:44:23;;;;;;;3.90;1.98;;;;;;;7.37;100.00;100884.81;6182907;23;20044;-86
2023/12/22 11:47:09;;;;;;;4.07;1.50;;;;;;;7.40;100.00;100905.53;6183482;23;20096;-84
2023/12/22 11:49:39;;;;;;;3.83;1.75;;;;;;;7.37;100.00;100914.00;6183354;23;20088;-84
2023/12/22 11:52:23;;;;;;;4.10;1.67;;;;;;;7.33;100.00;100882.13;6183021;23;20047;-83
2023/12/22 11:54:54;;;;;;;3.58;1.33;;;;;;;7.21;100.00;100865.22;6182383;23;20029;-83
2023/12/22 11:57:41;;;;;;;2.75;1.20;;;;;;;7.23;100.00;100894.50;6181783;23;20025;-84
2023/12/22 12:00:41;;;;;;;7.15;1.75;;;;;;;7.24;100.00;100899.72;6182527;23;20017;-84
2023/12/22 12:03:09;;;;;;;3.58;1.50;;;;;;;7.24;100.00;100889.44;6185149;23;20304;-84
2023/12/22 12:05:40;;;;;;;3.55;1.63;;;;;;;7.29;100.00;100887.94;6183153;23;20449;-83
2023/12/22 12:08:10;;;;;;;5.78;1.70;;;;;;;7.33;100.00;100892.41;6183114;23;20043;-84
2023/12/22 12:10:55;;;;;;;5.15;2.08;;;;;;;7.36;100.00;100872.78;6185089;23;20025;-84
2023/12/22 12:13:29;;;;;;;3.40;1.55;;;;;;;7.37;100.00;100879.66;6184106;23;20021;-84
2023/12/22 12:16:01;;;;;;;3.47;1.60;;;;;;;7.32;100.00;100864.88;6184784;23;20017;-84
2023/12/22 12:18:31;;;;;;;4.35;1.60;;;;;;;7.27;100.00;100863.81;6186254;23;20025;-83
2023/12/22 12:21:03;;;;;;;4.90;1.60;;;;;;;7.23;100.00;100849.03;6187166;23;20049;-85
2023/12/22 12:23:42;;;;;;;4.65;1.95;;;;;;;7.25;100.00;100855.13;6185245;23;20017;-84
2023/12/22 12:26:13;;;;;;;2.85;1.63;;;;;;;7.23;100.00;100856.75;6184885;23;20025;-85
2023/12/22 12:28:48;;;;;;;2.38;1.35;;;;;;;7.19;100.00;100862.56;6185822;23;20014;-84
2023/12/22 12:31:41;;;;;;;6.15;1.95;;;;;;;7.16;100.00;100849.59;6184866;23;20437;-84
2023/12/22 12:34:14;;;;;;;4.85;2.03;;;;;;;7.23;100.00;100855.88;6184762;23;20075;-86
2023/12/22 12:36:42;;;;;;;;;;;;;;;7.26;100.00;100849.19;6186311;23;20017;-84
2023/12/22 12:39:16;;;;;;;7.95;1.65;;;;;;;7.26;100.00;100849.19;6184085;23;19920;-84
2023/12/22 12:41:51;;;;;;;4.13;2.20;;;;;;;7.18;100.00;100840.25;6184845;23;20036;-85
2023/12/22 12:44:37;;;;;;;7.43;2.00;;;;;;;7.25;100.00;100852.56;6184338;23;20044;-85
2023/12/22 12:47:19;;;;;;;3.80;1.98;;;;;;;7.26;100.00;100854.34;6180840;23;20025;-83
2023/12/22 12:49:58;;;;;;;4.90;2.40;;;;;;;7.28;100.00;100855.28;6185242;23;20017;-85
2023/12/22 12:52:38;;;;;;;4.60;2.08;;;;;;;7.33;100.00;100837.47;6182456;23;20045;-84
2023/12/22 12:55:08;;;;;;;6.07;2.25;;;;;;;7.36;100.00;100842.75;6186209;23;20126;-86
2023/12/22 12:57:40;;;;;;;5.63;2.20;;;;;;;7.39;100.00;100852.31;6188030;23;20021;-86
2023/12/22 13:00:25;;;;;;;6.57;2.45;;;;;;;7.41;100.00;100846.41;6183739;23;20021;-83
2023/12/22 13:02:57;;;;;;;6.50;1.67;;;;;;;7.38;100.00;100845.41;6184179;23;20028;-86
2023/12/22 13:05:26;;;;;;;5.75;2.17;;;;;;;7.33;100.00;100843.50;6184597;23;20024;-84
2023/12/22 13:08:09;;;;;;;5.40;2.70;;;;;;;7.34;100.00;100834.09;6186438;23;20032;-83
2023/12/22 13:10:38;;;;;;;4.40;1.90;;;;;;;7.36;100.00;100821.28;6186153;23;20019;-83
2023/12/22 13:13:08;;;;;;;3.97;2.17;;;;;;;7.37;100.00;100818.75;6182926;23;20032;-84
2023/12/22 13:15:49;;;;;;;5.82;2.25;;;;;;;7.39;100.00;100821.41;6184975;23;20024;-83
2023/12/22 13:18:18;;;;;;;2.95;1.60;;;;;;;7.39;100.00;100824.84;6184644;23;20021;-85
2023/12/22 13:20:50;;;;;;;8.40;2.10;;;;;;;7.36;100.00;100821.28;6184320;23;20527;-85
2023/12/22 13:23:22;;;;;;;3.03;2.13;;;;;;;7.31;100.00;100834.84;6185701;23;20076;-84
2023/12/22 13:25:51;;;;;;;3.10;1.63;;;;;;;7.32;100.00;100820.25;6184038;23;20021;-84
2023/12/22 13:28:34;;;;;;;3.72;1.70;;;;;;;7.37;100.00;100838.47;6184770;23;20028;-84
2023/12/22 13:31:13;;;;;;;10.20;2.15;;;;;;;7.38;100.00;100845.41;6184717;23;20096;-84
2023/12/22 13:33:42;;;;;;;4.45;1.67;;;;;;;7.39;100.00;100839.44;6186280;23;20072;-84
2023/12/22 13:36:20;;;;;;;3.78;1.83;;;;;;;7.42;100.00;100836.97;6183959;23;20025;-84
2023/12/22 13:38:50;;;;;;;4.05;1.83;;;;;;;7.39;100.00;100836.84;6183122;23;20025;-83
2023/12/22 13:41:20;;;;;;;3.15;1.50;;;;;;;7.39;100.00;100827.44;6184301;23;20037;-83
2023/12/22 13:43:49;;;;;;;4.68;1.58;;;;;;;7.38;100.00;100824.81;6183359;23;20021;-83
2023/12/22 13:46:28;;;;;;;3.70;1.83;;;;;;;7.37;100.00;100838.47;6183261;23;20134;-82
2023/12/22 13:49:01;;;;;;;4.00;1.90;;;;;;;7.38;100.00;100825.69;6183587;23;20054;-84
2023/12/22 13:51:40;;;;;;;4.25;2.30;;;;;;;7.44;100.00;100814.75;6184082;23;20027;-84
2023/12/22 13:54:09;;;;;;;2.90;1.60;;;;;;;7.47;100.00;100820.06;6182734;23;20091;-84
2023/12/22 13:56:40;;;;;;;2.90;1.77;;;;;;;7.50;100.00;100822.75;6184087;23;20044;-84
2023/12/22 13:59:12;;;;;;;3.20;1.48;;;;;;;7.53;100.00;100823.75;6182145;23;20337;-84
2023/12/22 14:01:48;;;;;;;4.25;1.58;;;;;;;7.57;100.00;100826.47;6183721;23;20017;-84
2023/12/22 14:04:17;;;;;;;3.60;2.03;;;;;;;7.57;100.00;100818.75;6183464;23;20028;-83
2023/12/22 14:06:46;;;;;;;2.08;1.50;;;;;;;7.58;100.00;100829.09;6183226;23;20028;-83
2023/12/22 14:09:21;;;;;;;3.47;1.42;;;;;;;7.55;100.00;100818.66;6182962;23;20013;-83
2023/12/22 14:11:50;;;;;;;2.85;1.67;;;;;;;7.59;100.00;100822.28;6189290;23;20024;-82
2023/12/22 14:14:19;;;;;;;2.92;1.33;;;;;;;7.57;100.00;100819.63;6185592;23;20055;-83
2023/12/22 14:16:51;;;;;;;2.58;1.42;;;;;;;7.57;100.00;100811.91;6181818;23;20104;-83
2023/12/22 14:19:26;;;;;;;2.10;1.00;;;;;;;7.51;100.00;100796.19;6180748;23;20028;-83
2023/12/22 14:21:54;;;;;;;2.55;1.08;;;;;;;7.44;100.00;100789.00;6183032;23;20017;-82
2023/12/22 14:24:23;;;;;;;2.83;1.27;;;;;;;7.42;100.00;100790.63;6183642;23;20021;-82
2023/12/22 14:26:56;;;;;;;5.68;1.25;;;;;;;7.44;100.00;100778.72;6183301;23;20027;-82
2023/12/22 14:29:33;;;;;;;2.05;1.10;;;;;;;7.52;100.00;100782.50;6182908;23;20027;-82
2023/12/22 14:32:04;;;;;;;1.88;0.93;;;;;;;7.54;100.00;100786.03;6182615;23;20029;-83
2023/12/22 14:34:37;;;;;;;2.00;0.95;;;;;;;7.56;100.00;100784.41;6183288;23;20100;-83
2023/12/22 14:37:14;;;;;;;2.42;1.00;;;;;;;7.62;100.00;100787.22;6182606;23;20027;-83
2023/12/22 14:39:42;;;;;;;1.83;1.00;;;;;;;7.62;100.00;100783.75;6182961;23;20032;-83
2023/12/22 14:42:12;;;;;;;2.38;1.27;;;;;;;7.59;100.00;100769.06;6182728;23;20096;-83
2023/12/22 14:44:41;;;;;;;1.58;0.75;;;;;;;7.53;100.00;100768.81;6182316;23;20017;-83
2023/12/22 14:47:12;;;;;;;1.00;0.73;;;;;;;7.50;100.00;100760.97;6185592;23;20021;-82
2023/12/22 14:49:41;;;;;;;2.15;1.00;;;;;;;7.45;100.00;100754.75;6181737;23;20047;-82
2023/12/22 14:52:10;;;;;;;1.42;0.80;;;;;;;7.46;100.00;100777.09;6182545;23;20017;-85
2023/12/22 14:54:38;;;;;;;1.30;0.90;;;;;;;7.49;100.00;100788.41;6181640;23;20072;-83
2023/12/22 14:57:11;;;;;;;1.40;0.93;;;;;;;7.52;100.00;100803.97;6181777;23;20108;-85
2023/12/22 14:59:40;;;;;;;0.60;0.50;;;;;;;7.56;100.00;100817.88;6182812;23;20017;-84
2023/12/22 15:02:10;;;;;;;1.90;1.27;;;;;;;7.54;100.00;100871.00;6181557;23;20040;-84
2023/12/22 15:04:40;;;;;;;2.83;1.02;;;;;;;7.48;100.00;100894.75;6183451;23;20068;-83
2023/12/22 15:07:13;;;;;;;1.20;0.90;;;;;;;7.46;100.00;100895.50;6183114;23;20013;-82
2023/12/22 15:09:41;;;;;;;2.30;1.00;;;;;;;7.45;100.00;100901.50;6183060;23;20028;-82
2023/12/22 15:12:10;;;;;;;1.00;0.57;;;;;;;7.41;100.00;100881.56;6181757;23;20025;-83
2023/12/22 15:14:40;;;;;;;0.88;0.57;;;;;;;7.39;100.00;100883.19;6182843;23;20092;-83
2023/12/22 15:17:19;;;;;;;1.27;0.80;;;;;;;7.41;100.00;100884.16;6181671;23;20028;-82
2023/12/22 15:19:48;;;;;;;1.00;0.65;;;;;;;7.45;100.00;100888.63;6182594;23;20024;-83
2023/12/22 15:22:18;;;;;;;2.90;0.65;;;;;;;7.49;100.00;100893.06;6181802;23;20020;-82
2023/12/22 15:24:47;;;;;;;4.28;0.60;;;;;;;7.53;100.00;100905.28;6191003;23;20057;-83
2023/12/22 15:27:18;;;;;;;0.45;0.43;;;;;;;7.56;100.00;100918.31;6188425;23;20017;-83
2023/12/22 15:29:49;;;;;;;1.00;0.50;;;;;;;7.57;100.00;100917.47;6181868;23;20067;-82
2023/12/22 15:32:21;;;;;;;1.63;0.60;;;;;;;7.58;100.00;100924.38;6181776;23;20099;-82
2023/12/22 15:34:55;;;;;;;2.67;0.90;;;;;;;7.60;100.00;100945.91;6181407;23;20013;-85
2023/12/22 15:37:24;;;;;;;1.45;0.65;;;;;;;7.59;100.00;100941.59;6181462;23;20203;-82
2023/12/22 15:39:52;;;;;;;1.05;0.50;;;;;;;7.59;100.00;100951.03;6181926;23;20071;-82
2023/12/22 15:42:21;;;;;;;1.05;0.45;;;;;;;7.58;100.00;100972.41;6180354;23;20017;-82
2023/12/22 15:44:53;;;;;;;1.17;0.52;;;;;;;7.56;100.00;100977.53;6182736;23;20064;-82
2023/12/22 15:47:27;;;;;;;1.30;0.63;;;;;;;7.58;100.00;100975.88;6181795;23;20017;-82
2023/12/22 15:49:56;;;;;;;2.88;0.60;;;;;;;7.65;100.00;100984.75;6180655;23;20087;-82
2023/12/22 15:52:25;;;;;;;1.45;0.60;;;;;;;7.65;100.00;100987.34;6181519;23;20083;-83
2023/12/22 15:54:58;;;;;;;0.82;0.60;;;;;;;7.62;100.00;100990.66;6182216;23;20033;-83
2023/12/22 15:57:27;;;;;;;1.00;0.55;;;;;;;7.61;100.00;100986.34;6180894;23;20028;-82
2023/12/22 15:59:56;;;;;;;4.47;0.77;;;;;;;7.58;100.00;100986.16;6181867;23;20023;-83
2023/12/22 16:02:27;;;;;;;0.75;0.50;;;;;;;7.54;100.00;100986.88;6189611;23;20032;-83
2023/12/22 16:05:06;;;;;;;;;;;;;;;;;;;;;
2023/12/22 16:07:36;;;;;;;0.65;0.60;;;;;;;7.55;100.00;101010.09;6182230;23;20028;-82
2023/12/22 16:10:05;;;;;;;0.75;0.40;;;;;;;7.59;100.00;101018.84;6181590;23;20021;-82
2023/12/22 16:12:36;;;;;;;1.65;0.60;;;;;;;7.56;100.00;101031.59;6181956;23;20115;-81
2023/12/22 16:15:10;;;;;;;0.60;0.40;;;;;;;7.55;100.00;101033.28;6180493;23;20366;-81
2023/12/22 16:17:40;;;;;;;1.02;0.50;;;;;;;7.59;100.00;101031.72;6182566;23;20032;-81
2023/12/22 16:20:11;;;;;;;1.00;0.52;;;;;;;7.60;100.00;101048.94;6182702;23;20107;-81
2023/12/22 16:22:50;;;;;;;;;;;;;;;;;;;;;
2023/12/22 16:25:19;;;;;;;1.17;0.63;;;;;;;7.66;100.00;101089.56;6181881;23;20352;-81
2023/12/22 16:27:48;;;;;;;1.27;0.50;;;;;;;7.67;100.00;101089.63;6182636;23;20025;-81
2023/12/22 16:30:18;;;;;;;1.75;0.85;;;;;;;7.72;100.00;101095.00;6182026;23;20021;-83
2023/12/22 16:32:52;;;;;;;2.95;1.23;;;;;;;7.81;100.00;101109.97;6181400;23;20088;-84
2023/12/22 16:35:21;;;;;;;1.42;0.77;;;;;;;7.82;100.00;101116.91;6181509;23;20021;-83
2023/12/22 16:37:50;;;;;;;2.08;0.90;;;;;;;7.81;100.00;101128.91;6183643;23;20027;-82
2023/12/22 16:40:19;;;;;;;1.95;1.05;;;;;;;7.82;100.00;101137.53;6184170;23;20052;-83
2023/12/22 16:42:48;;;;;;;2.65;1.52;;;;;;;7.82;100.00;101132.38;6180922;23;20025;-83
2023/12/22 16:45:17;;;;;;;2.63;1.58;;;;;;;7.81;100.00;101143.47;6182005;23;20068;-79
2023/12/22 16:47:48;;;;;;;3.08;1.20;;;;;;;7.85;100.00;101147.97;6180797;23;20112;-85
2023/12/22 16:50:16;;;;;;;1.60;0.95;;;;;;;7.88;100.00;101158.41;6183569;23;20013;-86
2023/12/22 16:52:50;;;;;;;2.38;1.10;;;;;;;7.84;100.00;101156.50;6181395;23;20095;-85
2023/12/22 16:55:19;;;;;;;1.52;0.82;;;;;;;7.86;100.00;101160.03;6183037;23;20024;-86
2023/12/22 16:57:49;;;;;;;1.63;0.80;;;;;;;7.80;100.00;101150.31;6182216;23;20107;-85
2023/12/22 17:00:20;;;;;;;2.40;1.05;;;;;;;7.68;100.00;101132.59;6183268;23;20083;-86
2023/12/22 17:02:59;;;;;;;1.02;0.63;;;;;;;7.69;100.00;101147.22;6184551;23;20120;-86
2023/12/22 17:05:28;;;;;;;1.65;0.70;;;;;;;7.68;100.00;101135.19;6182535;23;20079;-86
2023/12/22 17:07:57;;;;;;;1.05;0.60;;;;;;;7.68;100.00;101140.31;6183538;23;20051;-86
2023/12/22 17:10:39;;;;;;;1.35;0.52;;;;;;;7.61;100.00;101133.13;6183727;23;20020;-88
2023/12/22 17:13:11;;;;;;;0.98;0.65;;;;;;;7.48;100.00;101113.63;6185318;23;20460;-89
2023/12/22 17:15:40;;;;;;;1.13;0.60;;;;;;;7.36;100.00;101117.31;6188206;23;20042;-90
2023/12/22 17:46:09;;;;;;;6.65;3.45;;;;;;;7.86;100.00;101235.63;6196093;23;20115;-85
2023/12/22 17:48:39;;;;;;;1.10;0.80;;;;;;;7.86;100.00;101227.91;6212711;23;20042;-87
2023/12/22 17:51:08;;;;;;;0.40;0.22;;;;;;;7.84;100.00;101236.38;6213284;23;20056;-85
2023/12/22 17:53:42;;;;;;;1.10;0.52;;;;;;;7.84;100.00;101255.28;6216995;23;20075;-87
2023/12/22 17:56:11;;;;;;;1.02;0.73;;;;;;;7.95;100.00;101289.31;6214774;23;20026;-86
2023/12/22 17:58:40;;;;;;;0.75;0.40;;;;;;;7.98;100.00;101295.47;6213327;23;20021;-84
2023/12/22 18:01:13;;;;;;;0.40;0.40;;;;;;;7.98;100.00;101294.59;6214040;23;20072;-83
2023/12/22 18:03:53;;;;;;;1.48;0.55;;;;;;;7.89;100.00;101295.03;6212980;23;20108;-88
2023/12/22 18:06:22;;;;;;;2.05;0.50;;;;;;;7.88;100.00;101315.56;6213696;23;20021;-86
2023/12/22 18:08:52;;;;;;;1.23;0.70;;;;;;;7.85;100.00;101333.47;6214403;23;20025;-85
2023/12/22 18:11:31;;;;;;;1.23;0.60;;;;;;;7.85;100.00;101330.88;6214420;23;20016;-87
2023/12/22 18:14:00;;;;;;;4.63;0.68;;;;;;;7.84;100.00;101321.41;6215563;23;20036;-88
2023/12/22 18:16:50;;;;;;;0.70;0.60;;;;;;;7.85;100.00;101342.06;6209013;23;20098;-87
2023/12/22 18:19:19;;;;;;;0.88;0.40;;;;;;;7.80;100.00;101350.38;6212841;23;20459;-89
2023/12/22 18:21:49;;;;;;;1.27;0.30;;;;;;;7.83;100.00;101363.41;6216177;23;20012;-87
2023/12/22 18:24:21;;;;;;;0.30;0.30;;;;;;;7.85;100.00;101359.22;6217742;23;20021;-89
2023/12/22 18:35:03;;;;;;;0.68;0.40;;;;;;;7.97;100.00;101350.41;6193099;23;20028;-85
2023/12/22 18:37:31;;;;;;;0.82;0.47;;;;;;;8.03;100.00;101347.25;6212739;23;20020;-84
2023/12/22 18:40:00;;;;;;;0.38;0.30;;;;;;;8.05;100.00;101355.06;6212925;23;20043;-87
2023/12/22 18:42:30;;;;;;;0.90;0.45;;;;;;;8.06;100.00;101359.41;6213076;23;20079;-84
2023/12/22 18:45:07;;;;;;;0.40;0.38;;;;;;;8.12;100.00;101364.88;6212967;23;20520;-86
2023/12/22 18:47:35;;;;;;;0.40;0.35;;;;;;;8.12;100.00;101370.03;6210729;23;20024;-85
2023/12/22 18:50:09;;;;;;;0.57;0.32;;;;;;;8.06;100.00;101375.75;6207147;23;20074;-82
2023/12/22 18:52:43;;;;;;;0.30;0.30;;;;;;;8.05;100.00;101384.28;6209367;23;20470;-83
2023/12/22 18:55:12;;;;;;;8.35;3.17;;;;;;;8.04;100.00;101382.53;6211640;23;20024;-82
2023/12/22 18:57:41;;;;;;;0.10;0.10;;;;;;;8.06;100.00;101387.75;6212461;23;20036;-83
2023/12/22 19:00:12;;;;;;;0.30;0.20;;;;;;;8.07;100.00;101389.53;6213559;23;20390;-87
2023/12/22 19:02:41;;;;;;;0.20;0.20;;;;;;;8.11;100.00;101389.75;6212667;23;20020;-83
2023/12/22 19:05:12;;;;;;;1.45;0.32;;;;;;;8.19;100.00;101393.59;6208660;23;20016;-85
2023/12/22 19:07:41;;;;;;;0.43;0.20;;;;;;;8.23;100.00;101396.34;6213956;23;20515;-86
2023/12/22 19:10:14;;;;;;;0.10;0.08;;;;;;;8.25;100.00;101386.97;6210720;23;20021;-88
2023/12/22 19:12:52;;;;;;;1.85;0.52;;;;;;;8.22;100.00;101386.81;6210881;23;20012;-85
2023/12/22 19:15:22;;;;;;;0.25;0.20;;;;;;;8.25;100.00;101382.72;6210191;23;20054;-85
2023/12/22 19:25:40;;;;;;;1.13;0.30;;;;;;;8.48;100.00;101391.59;6195829;23;20024;-84
2023/12/22 19:28:16;;;;;;;0.98;0.20;;;;;;;8.47;100.00;101397.53;6212019;23;20100;-88
2023/12/22 19:30:45;;;;;;;0.15;0.15;;;;;;;8.52;100.00;101390.94;6212844;23;20016;-83
2023/12/22 19:33:14;;;;;;;0.20;0.10;;;;;;;8.52;100.00;101383.19;6210929;23;20016;-83
2023/12/22 19:35:50;;;;;;;0.75;0.20;;;;;;;8.55;100.00;101393.66;6212277;23;20016;-84